Weather at Mansfield Municipal Airport

Public forecast

Using degrees Fahrenheit for public forecast. Weather courtesy of forecast.io.

Closest aviation weather report (METAR) to Mansfield Municipal Airport

Closest report is Taunton Municipal King Field, 11.0 nm (20.4 km) SE. Retrieved 2020/09/26 04:44 UTC (8 minutes ago):

KTAN 260444Z AUTO 00000KT 1 1/2SM BR OVC006 12/11 A3013 RMK AO2 T01220111

Closest aviation forecast (TAF) to Mansfield Municipal Airport

Closest forecast is Theodore Francis Green State Airport, 18.9 nm (35.0 km) SSW. Retrieved 2020-09-26 00:42 UTC (4 hours ago):

TAF KPVD 252339Z 2600/2624 19005KT P6SM SCT250 FM260600 20003KT 5SM BR BKN250 FM260900 19003KT 3SM BR BKN008 FM261300 19004KT 5SM BR SCT010 FM261400 18005KT P6SM FEW020 BKN200 FM262300 18006KT P6SM SCT040 BKN150